Time;durP1;ratioP1;P1;durP2;ratioP2;P2;SDS_P1;SDS_P2;PMS_P1;PMS_P2;Temp;Humidity;BMP_temperature;BMP_pressure;BME280_temperature;BME280_humidity;BME280_pressure;Samples;Min_cycle;Max_cycle;Signal;HPM_P1;HPM_P2
2023/05/29 00:02:21;;;;;;;8.40;7.00;;;15.70;1.00;;;;;;5137105;27;20213;-47
2023/05/29 00:04:47;;;;;;;6.40;5.80;;;15.70;1.00;;;;;;5137920;27;20232;-48
2023/05/29 00:07:12;;;;;;;8.80;7.00;;;15.60;1.00;;;;;;5138726;27;20255;-49
2023/05/29 00:09:38;;;;;;;9.80;7.30;;;15.50;1.00;;;;;;5137169;27;20560;-49
2023/05/29 00:12:05;;;;;;;8.57;6.43;;;15.50;1.00;;;;;;5136417;27;20247;-48
2023/05/29 00:14:31;;;;;;;9.57;7.07;;;15.40;1.00;;;;;;5136867;27;20179;-48
2023/05/29 00:16:57;;;;;;;9.20;7.20;;;15.40;1.00;;;;;;5138212;27;20432;-51
2023/05/29 00:19:24;;;;;;;10.30;6.50;;;15.40;1.00;;;;;;5138061;27;20448;-47
2023/05/29 00:21:50;;;;;;;11.23;7.13;;;15.30;1.00;;;;;;5127945;27;20198;-49
2023/05/29 00:24:16;;;;;;;8.47;7.20;;;15.30;1.00;;;;;;5133523;27;20425;-48
2023/05/29 00:26:42;;;;;;;9.27;6.80;;;15.30;1.00;;;;;;5134179;27;20175;-48
2023/05/29 00:29:08;;;;;;;9.37;7.03;;;15.20;1.00;;;;;;5116893;28;20839;-47
2023/05/29 00:31:35;;;;;;;9.20;7.10;;;15.20;1.00;;;;;;5115865;28;20433;-47
2023/05/29 00:34:01;;;;;;;9.77;6.93;;;15.20;1.00;;;;;;5117002;28;20180;-49
2023/05/29 00:36:29;;;;;;;10.90;6.97;;;15.10;1.00;;;;;;5116668;27;20553;-47
2023/05/29 00:38:55;;;;;;;7.77;6.40;;;15.10;1.00;;;;;;5132052;27;20428;-47
2023/05/29 00:41:20;;;;;;;9.63;6.83;;;15.10;1.00;;;;;;5116160;28;20821;-48
2023/05/29 00:43:46;;;;;;;9.10;6.73;;;15.00;1.00;;;;;;5122996;27;20230;-48
2023/05/29 00:46:14;;;;;;;7.90;6.57;;;15.00;1.00;;;;;;5133875;27;20190;-48
2023/05/29 00:48:41;;;;;;;11.07;7.23;;;14.90;1.00;;;;;;5105911;28;20191;-48
2023/05/29 00:51:08;;;;;;;7.87;6.67;;;14.90;1.00;;;;;;5099449;28;20433;-51
2023/05/29 00:53:34;;;;;;;7.33;6.40;;;14.90;1.00;;;;;;5117205;28;20430;-47
2023/05/29 00:56:00;;;;;;;9.27;7.27;;;14.80;1.00;;;;;;5117406;28;20503;-48
2023/05/29 00:58:26;;;;;;;11.70;7.57;;;14.80;1.00;;;;;;5114226;27;20445;-47
2023/05/29 01:00:52;;;;;;;7.90;7.03;;;14.80;1.00;;;;;;5137996;27;20499;-48
2023/05/29 01:03:18;;;;;;;9.17;6.83;;;14.70;1.00;;;;;;5119130;28;20210;-48
2023/05/29 01:05:46;;;;;;;9.30;7.40;;;14.70;1.00;;;;;;5137811;27;20408;-48
2023/05/29 01:08:12;;;;;;;9.70;6.20;;;14.70;1.00;;;;;;5137745;27;20549;-48
2023/05/29 01:10:38;;;;;;;9.70;7.57;;;14.60;1.00;;;;;;5138136;27;20668;-48
2023/05/29 01:13:08;;;;;;;9.70;7.70;;;14.60;1.00;;;;;;5137236;28;20481;-49
2023/05/29 01:15:58;;;;;;;9.37;7.27;;;14.60;1.00;;;;;;5118913;28;20244;-50
2023/05/29 01:18:39;;;;;;;7.90;6.73;;;14.60;1.00;;;;;;5120288;28;20429;-49
2023/05/29 01:21:13;;;;;;;12.20;7.20;;;14.50;1.00;;;;;;5137607;28;20424;-48
2023/05/29 01:24:03;;;;;;;7.37;6.57;;;14.50;1.00;;;;;;5119730;27;20470;-51
2023/05/29 01:26:42;;;;;;;7.37;6.67;;;14.50;5.00;;;;;;5125434;28;20510;-48
2023/05/29 01:29:08;;;;;;;8.30;7.00;;;14.40;9.90;;;;;;5117115;28;20405;-48
2023/05/29 01:31:35;;;;;;;8.07;7.00;;;14.40;12.80;;;;;;5102832;28;20795;-48
2023/05/29 01:34:01;;;;;;;10.20;7.57;;;14.40;22.20;;;;;;5116063;28;20426;-49
2023/05/29 01:36:26;;;;;;;7.67;6.87;;;14.30;31.40;;;;;;5117587;28;20425;-47
2023/05/29 01:38:54;;;;;;;9.93;6.83;;;14.20;43.00;;;;;;5117171;28;20444;-47
2023/05/29 01:41:21;;;;;;;9.00;7.33;;;14.20;72.80;;;;;;5117062;28;20263;-49
2023/05/29 01:43:47;;;;;;;12.17;7.30;;;14.20;92.00;;;;;;5125429;28;20555;-48
2023/05/29 01:46:13;;;;;;;8.17;6.80;;;14.20;99.90;;;;;;5137706;28;20487;-49
2023/05/29 01:48:43;;;;;;;8.27;6.60;;;14.20;99.90;;;;;;5119281;28;20434;-51
2023/05/29 01:51:12;;;;;;;7.73;6.93;;;14.10;99.90;;;;;;5137240;28;20416;-48
2023/05/29 01:53:39;;;;;;;8.80;7.43;;;14.20;99.90;;;;;;5137875;28;20466;-48
2023/05/29 01:56:06;;;;;;;9.27;6.90;;;14.10;99.90;;;;;;5137731;28;20536;-48
2023/05/29 01:58:32;;;;;;;8.90;6.93;;;14.10;99.90;;;;;;5137843;28;20722;-51
2023/05/29 02:00:58;;;;;;;8.40;7.43;;;14.10;99.90;;;;;;5137729;28;20424;-50
2023/05/29 02:03:24;;;;;;;9.90;7.40;;;14.10;99.90;;;;;;5137467;28;20615;-49
2023/05/29 02:05:50;;;;;;;8.67;6.63;;;14.10;99.90;;;;;;5137576;28;20320;-47
2023/05/29 02:08:15;;;;;;;9.33;7.83;;;14.10;99.90;;;;;;5137174;28;20175;-47
2023/05/29 02:10:41;;;;;;;11.17;8.10;;;14.10;99.90;;;;;;5137621;28;20420;-47
2023/05/29 02:13:07;;;;;;;10.90;6.93;;;14.00;99.90;;;;;;5136469;28;20184;-48
2023/05/29 02:15:32;;;;;;;9.33;7.00;;;14.00;99.90;;;;;;5135558;27;20541;-48
2023/05/29 02:18:00;;;;;;;9.17;7.20;;;14.00;99.90;;;;;;5139997;27;20327;-48
2023/05/29 02:20:27;;;;;;;7.57;6.70;;;14.00;99.90;;;;;;5130950;27;20167;-47
2023/05/29 02:22:52;;;;;;;8.37;7.20;;;14.00;99.90;;;;;;5119244;28;20483;-47
2023/05/29 02:25:18;;;;;;;8.13;7.33;;;13.90;99.90;;;;;;5119998;28;20940;-48
2023/05/29 02:27:44;;;;;;;7.60;6.80;;;13.90;99.90;;;;;;5120228;28;20180;-48
2023/05/29 02:30:10;;;;;;;7.13;6.43;;;13.90;99.90;;;;;;5120148;28;20225;-47
2023/05/29 02:32:36;;;;;;;8.03;6.30;;;13.80;99.90;;;;;;5101339;28;20172;-50
2023/05/29 02:35:02;;;;;;;7.23;6.37;;;13.80;99.90;;;;;;5119855;28;20437;-48
2023/05/29 02:37:27;;;;;;;8.10;7.27;;;13.70;99.90;;;;;;5119754;28;20275;-47
2023/05/29 02:39:53;;;;;;;7.63;6.50;;;13.70;99.90;;;;;;5119314;28;20489;-50
2023/05/29 02:42:19;;;;;;;7.53;6.57;;;13.60;99.90;;;;;;5119230;28;20219;-47
2023/05/29 02:44:45;;;;;;;7.00;5.70;;;13.60;99.90;;;;;;5119600;28;20229;-50
2023/05/29 02:47:10;;;;;;;8.00;6.40;;;13.60;99.90;;;;;;5119892;27;20172;-47
2023/05/29 02:49:36;;;;;;;8.27;6.83;;;13.50;99.90;;;;;;5119896;28;20183;-48
2023/05/29 02:52:01;;;;;;;12.93;7.40;;;13.50;99.90;;;;;;5117836;28;20179;-49
2023/05/29 02:54:27;;;;;;;8.80;6.63;;;13.60;99.90;;;;;;5119301;28;20218;-47
2023/05/29 02:56:53;;;;;;;8.13;6.83;;;13.50;99.90;;;;;;5119464;28;20288;-47
2023/05/29 02:59:19;;;;;;;9.03;6.63;;;13.50;99.90;;;;;;5119696;28;20184;-48
2023/05/29 03:01:45;;;;;;;7.40;6.60;;;13.50;99.90;;;;;;5119490;28;20702;-48
2023/05/29 03:04:11;;;;;;;6.80;6.20;;;13.50;99.90;;;;;;5118468;28;20473;-48
2023/05/29 03:06:37;;;;;;;7.13;6.43;;;13.50;99.90;;;;;;5118726;28;20467;-49
2023/05/29 03:09:04;;;;;;;10.77;7.70;;;13.50;99.90;;;;;;5118506;28;20172;-51
2023/05/29 03:11:30;;;;;;;10.70;6.60;;;13.40;99.90;;;;;;5117937;28;20265;-47
2023/05/29 03:13:56;;;;;;;10.23;6.83;;;13.30;1.00;;;;;;5118235;28;20780;-47
2023/05/29 03:16:22;;;;;;;11.07;7.50;;;13.30;1.00;;;;;;5118235;28;20430;-48
2023/05/29 03:18:47;;;;;;;7.73;6.93;;;13.20;1.00;;;;;;5118013;28;20190;-50
2023/05/29 03:21:13;;;;;;;7.27;6.50;;;13.20;1.00;;;;;;5117838;28;20187;-47
2023/05/29 03:23:38;;;;;;;11.93;6.40;;;13.20;1.00;;;;;;5117520;28;20211;-51
2023/05/29 03:26:05;;;;;;;9.50;7.60;;;13.20;1.00;;;;;;5118790;28;20457;-47
2023/05/29 03:28:31;;;;;;;7.87;6.60;;;13.20;1.00;;;;;;5118189;28;20195;-49
2023/05/29 03:30:57;;;;;;;9.43;7.43;;;13.20;1.00;;;;;;5118943;28;20464;-51
2023/05/29 03:33:22;;;;;;;8.23;7.03;;;13.20;1.00;;;;;;5118609;28;20497;-46
2023/05/29 03:35:48;;;;;;;12.83;7.10;;;13.20;1.00;;;;;;5118354;28;20476;-47
2023/05/29 03:38:13;;;;;;;9.40;6.80;;;13.20;1.00;;;;;;5118624;28;20236;-49
2023/05/29 03:40:39;;;;;;;12.50;7.30;;;13.20;1.00;;;;;;5118447;28;20191;-49
2023/05/29 03:43:04;;;;;;;10.70;7.37;;;13.20;1.00;;;;;;5118218;28;20445;-48
2023/05/29 03:45:30;;;;;;;10.07;7.80;;;13.20;1.00;;;;;;5118513;28;20175;-49
2023/05/29 03:47:56;;;;;;;8.93;7.37;;;13.20;1.00;;;;;;5118734;28;20180;-48
2023/05/29 03:50:21;;;;;;;34.53;7.23;;;13.20;1.00;;;;;;5118431;28;20179;-48
2023/05/29 03:52:47;;;;;;;7.77;6.57;;;13.20;1.00;;;;;;5118658;28;20332;-48
2023/05/29 03:55:14;;;;;;;7.03;6.33;;;13.20;1.00;;;;;;5117825;28;20179;-50
2023/05/29 03:57:40;;;;;;;8.37;6.70;;;13.20;1.00;;;;;;5118234;28;20600;-48
2023/05/29 04:00:09;;;;;;;8.23;7.07;;;13.20;1.00;;;;;;5118157;28;20427;-47
2023/05/29 04:02:35;;;;;;;7.73;6.93;;;13.20;1.00;;;;;;5117908;28;20461;-49
2023/05/29 04:05:01;;;;;;;9.43;6.83;;;13.20;1.00;;;;;;5118006;27;20452;-47
2023/05/29 04:07:27;;;;;;;9.20;7.93;;;13.20;1.00;;;;;;5118068;28;20422;-49
2023/05/29 04:09:52;;;;;;;8.53;7.47;;;13.20;1.00;;;;;;5118410;28;20240;-48
2023/05/29 04:12:18;;;;;;;7.23;6.53;;;13.30;1.00;;;;;;5117813;28;20175;-50
2023/05/29 04:14:44;;;;;;;7.90;6.30;;;13.20;1.00;;;;;;5117118;28;20194;-48
2023/05/29 04:17:09;;;;;;;7.30;6.60;;;13.20;1.00;;;;;;5117716;28;20203;-49
2023/05/29 04:19:35;;;;;;;7.40;6.30;;;13.20;1.00;;;;;;5120066;27;20549;-50
2023/05/29 04:22:01;;;;;;;9.67;7.57;;;13.30;1.00;;;;;;5138258;27;20467;-47
2023/05/29 04:24:26;;;;;;;8.13;5.60;;;13.30;1.00;;;;;;5137640;27;20191;-48
2023/05/29 04:26:52;;;;;;;10.10;7.30;;;13.30;1.00;;;;;;5101967;27;20186;-48
2023/05/29 04:29:18;;;;;;;8.27;7.00;;;13.30;1.00;;;;;;5137066;27;20463;-47
2023/05/29 04:31:44;;;;;;;7.50;6.70;;;13.40;1.00;;;;;;5135617;27;20432;-49
2023/05/29 04:34:10;;;;;;;7.17;6.23;;;13.40;1.00;;;;;;5135939;27;20428;-48
2023/05/29 04:36:39;;;;;;;7.53;6.73;;;13.50;1.00;;;;;;5136688;27;20175;-46
2023/05/29 04:39:07;;;;;;;10.13;7.73;;;13.60;1.00;;;;;;5136218;27;20432;-46
2023/05/29 04:41:33;;;;;;;9.20;7.03;;;13.60;1.00;;;;;;5136174;27;20420;-47
2023/05/29 04:43:58;;;;;;;8.50;7.00;;;13.60;1.00;;;;;;5135080;27;20479;-49
2023/05/29 04:46:24;;;;;;;8.70;7.23;;;13.70;1.00;;;;;;5137256;27;20175;-48
2023/05/29 04:48:54;;;;;;;8.33;6.73;;;13.80;1.00;;;;;;5137753;27;20561;-49
2023/05/29 04:51:21;;;;;;;7.63;6.60;;;13.80;1.00;;;;;;5137754;27;20802;-46
2023/05/29 04:53:47;;;;;;;7.10;5.83;;;13.90;1.00;;;;;;5137620;27;20822;-49
2023/05/29 04:56:13;;;;;;;7.90;6.53;;;14.20;1.00;;;;;;5136270;27;20476;-47
2023/05/29 04:58:40;;;;;;;9.30;7.37;;;14.50;1.00;;;;;;5136605;27;20431;-47
2023/05/29 05:01:07;;;;;;;7.97;6.27;;;14.70;99.90;;;;;;5135921;27;20428;-48
2023/05/29 05:03:34;;;;;;;8.00;6.37;;;15.00;99.90;;;;;;5137142;27;20764;-49
2023/05/29 05:06:02;;;;;;;10.63;6.90;;;15.20;99.90;;;;;;5136592;27;20420;-47
2023/05/29 05:08:29;;;;;;;8.27;6.60;;;15.40;99.90;;;;;;5137438;27;20435;-47
2023/05/29 05:10:55;;;;;;;7.40;6.67;;;15.60;99.90;;;;;;5137399;27;20429;-46
2023/05/29 05:13:20;;;;;;;8.93;7.70;;;15.70;87.00;;;;;;5135355;27;21221;-47
2023/05/29 05:15:46;;;;;;;10.30;7.47;;;15.80;45.00;;;;;;5116990;27;20416;-48
2023/05/29 05:18:12;;;;;;;6.77;6.07;;;15.90;30.50;;;;;;5135152;28;20250;-50
2023/05/29 05:20:37;;;;;;;22.93;7.90;;;15.90;24.20;;;;;;5123695;28;20194;-46
2023/05/29 05:23:03;;;;;;;8.37;7.47;;;15.80;15.40;;;;;;5114167;28;20214;-48
2023/05/29 05:25:29;;;;;;;7.83;6.67;;;15.90;16.90;;;;;;5115120;28;20176;-48
2023/05/29 05:27:54;;;;;;;10.00;7.70;;;16.00;18.00;;;;;;5114596;28;20334;-47
2023/05/29 05:30:20;;;;;;;9.33;7.10;;;16.10;9.00;;;;;;5114733;28;20321;-48
2023/05/29 05:32:46;;;;;;;8.60;6.50;;;16.20;1.00;;;;;;5116024;28;20200;-48
2023/05/29 05:35:11;;;;;;;10.20;7.10;;;16.40;1.00;;;;;;5116108;28;20186;-49
2023/05/29 05:37:37;;;;;;;8.50;7.40;;;16.50;1.00;;;;;;5116230;28;20267;-48
2023/05/29 05:40:06;;;;;;;7.80;6.83;;;16.60;1.00;;;;;;5116239;28;20180;-46
2023/05/29 05:42:32;;;;;;;7.30;6.60;;;16.70;1.00;;;;;;5116479;28;20468;-49
2023/05/29 05:44:58;;;;;;;8.70;6.30;;;16.80;1.00;;;;;;5115850;28;20429;-50
2023/05/29 05:47:23;;;;;;;7.80;6.70;;;16.90;1.00;;;;;;5115942;28;20444;-48
2023/05/29 05:49:51;;;;;;;8.40;6.90;;;16.90;1.00;;;;;;5115137;28;20528;-48
2023/05/29 05:52:17;;;;;;;10.40;7.20;;;17.00;1.00;;;;;;5117868;28;20176;-49
2023/05/29 05:54:43;;;;;;;7.20;5.70;;;17.20;1.00;;;;;;5082852;28;20452;-48
2023/05/29 05:57:09;;;;;;;8.80;6.73;;;17.30;1.00;;;;;;5119276;28;20870;-47
2023/05/29 05:59:35;;;;;;;8.67;7.10;;;17.50;1.00;;;;;;5120134;28;20187;-53
2023/05/29 06:02:01;;;;;;;8.33;6.87;;;17.70;1.00;;;;;;5119501;28;20440;-47
2023/05/29 06:04:27;;;;;;;14.20;7.70;;;17.70;1.00;;;;;;5119787;28;20417;-49
2023/05/29 06:06:53;;;;;;;8.50;6.80;;;17.70;1.00;;;;;;5119193;28;20441;-50
2023/05/29 06:09:19;;;;;;;8.07;7.10;;;17.70;1.00;;;;;;5119670;28;20236;-48
2023/05/29 06:11:44;;;;;;;7.50;6.80;;;17.80;1.00;;;;;;5119863;28;20428;-48
2023/05/29 06:14:10;;;;;;;8.43;6.40;;;17.90;1.00;;;;;;5119853;28;20176;-46
2023/05/29 06:16:36;;;;;;;8.90;6.90;;;18.10;1.00;;;;;;5119892;28;20184;-47
2023/05/29 06:19:02;;;;;;;8.87;7.63;;;18.20;1.00;;;;;;5119324;28;20308;-47
2023/05/29 06:21:27;;;;;;;6.60;6.00;;;18.40;1.00;;;;;;5137653;27;20468;-47
2023/05/29 06:23:53;;;;;;;7.33;6.63;;;18.50;1.00;;;;;;5139038;27;20470;-50
2023/05/29 06:26:18;;;;;;;7.33;6.50;;;18.70;1.00;;;;;;5140466;27;20232;-49
2023/05/29 06:28:44;;;;;;;9.33;6.20;;;18.80;1.00;;;;;;5140394;27;20190;-47
2023/05/29 06:31:10;;;;;;;7.83;6.93;;;18.90;1.00;;;;;;5140398;27;20183;-46
2023/05/29 06:33:37;;;;;;;7.90;5.90;;;19.00;1.00;;;;;;5139575;27;20568;-49
2023/05/29 06:36:03;;;;;;;12.80;7.40;;;19.10;1.00;;;;;;5140472;27;20191;-49
2023/05/29 06:38:29;;;;;;;8.53;7.00;;;19.30;1.00;;;;;;5120474;27;20674;-50
2023/05/29 06:40:55;;;;;;;6.77;6.07;;;19.40;1.00;;;;;;5103799;27;20429;-47
2023/05/29 06:43:20;;;;;;;7.33;6.63;;;19.60;1.00;;;;;;5119711;27;20214;-47
2023/05/29 06:45:46;;;;;;;7.77;5.83;;;19.80;1.00;;;;;;5137881;27;20505;-46
2023/05/29 06:48:12;;;;;;;6.43;5.83;;;20.00;1.00;;;;;;5138561;27;20167;-48
2023/05/29 06:50:37;;;;;;;8.30;5.83;;;20.10;1.00;;;;;;5138735;27;20183;-49
2023/05/29 06:53:03;;;;;;;7.10;6.13;;;20.10;1.00;;;;;;5139210;27;20183;-48
2023/05/29 06:55:28;;;;;;;6.93;6.23;;;20.20;1.00;;;;;;5137891;27;20199;-52
2023/05/29 06:57:56;;;;;;;8.27;6.10;;;20.30;1.00;;;;;;5119898;27;20265;-49
2023/05/29 07:00:22;;;;;;;7.40;5.90;;;20.40;1.00;;;;;;5139088;27;20182;-45
2023/05/29 07:02:48;;;;;;;7.70;6.20;;;20.40;1.00;;;;;;5138519;27;20567;-46
2023/05/29 07:05:14;;;;;;;6.87;6.10;;;20.50;1.00;;;;;;5137530;27;20519;-46
2023/05/29 07:07:39;;;;;;;8.27;6.20;;;20.60;1.00;;;;;;5137734;27;20163;-49
2023/05/29 07:10:06;;;;;;;9.30;6.33;;;20.80;1.00;;;;;;5138451;27;20171;-49
2023/05/29 07:12:31;;;;;;;6.23;5.63;;;21.10;1.00;;;;;;5138418;27;20452;-46
2023/05/29 07:14:57;;;;;;;6.53;5.70;;;21.30;1.00;;;;;;5137892;27;20428;-47
2023/05/29 07:17:22;;;;;;;6.70;6.07;;;21.50;1.00;;;;;;5138282;27;20202;-48
2023/05/29 07:19:49;;;;;;;8.93;6.30;;;21.70;1.00;;;;;;5134223;27;20180;-48
2023/05/29 07:22:15;;;;;;;7.83;6.00;;;21.90;1.00;;;;;;5118247;28;20214;-48
2023/05/29 07:24:41;;;;;;;10.80;6.03;;;22.00;1.00;;;;;;5118533;28;20417;-45
2023/05/29 07:27:06;;;;;;;7.30;6.60;;;22.10;1.00;;;;;;5099328;28;20418;-50
2023/05/29 07:29:32;;;;;;;7.80;5.70;;;22.20;1.00;;;;;;5117574;28;20478;-47
2023/05/29 07:31:58;;;;;;;6.47;5.47;;;22.30;1.00;;;;;;5118102;28;20251;-48
2023/05/29 07:34:24;;;;;;;6.97;5.73;;;22.40;1.00;;;;;;5099071;28;20176;-48
2023/05/29 07:37:04;;;;;;;9.47;6.30;;;22.60;1.00;;;;;;5116388;28;20641;-45
2023/05/29 07:39:30;;;;;;;8.70;6.37;;;22.80;1.00;;;;;;5117961;28;20424;-48
2023/05/29 07:41:56;;;;;;;7.90;5.80;;;23.00;1.00;;;;;;5117411;28;20429;-46
2023/05/29 07:44:21;;;;;;;6.57;5.70;;;23.20;1.00;;;;;;5098144;28;20796;-48
2023/05/29 07:46:47;;;;;;;8.20;6.80;;;23.40;1.00;;;;;;5115396;28;20222;-47
2023/05/29 07:49:13;;;;;;;6.57;5.90;;;23.50;1.00;;;;;;5116265;28;20426;-47
2023/05/29 07:51:39;;;;;;;6.90;6.10;;;23.50;1.00;;;;;;5116075;28;20238;-47
2023/05/29 07:54:06;;;;;;;6.80;6.10;;;23.80;1.00;;;;;;5114868;28;20180;-49
2023/05/29 07:56:33;;;;;;;8.10;5.90;;;23.90;1.00;;;;;;5115333;28;20266;-46
2023/05/29 07:58:59;;;;;;;7.60;6.10;;;24.00;1.00;;;;;;5115913;28;20453;-46
2023/05/29 08:01:26;;;;;;;7.30;6.50;;;24.10;1.00;;;;;;5115981;28;20469;-49
2023/05/29 08:03:51;;;;;;;7.17;5.87;;;24.30;1.00;;;;;;5115085;28;20450;-50
2023/05/29 08:06:17;;;;;;;6.97;6.27;;;24.50;1.00;;;;;;5114272;28;20498;-46
2023/05/29 08:08:43;;;;;;;6.20;5.60;;;24.60;1.00;;;;;;5114308;28;20286;-47
2023/05/29 08:11:10;;;;;;;7.97;7.17;;;24.70;1.00;;;;;;5115046;28;20551;-47
2023/05/29 08:13:36;;;;;;;6.73;6.03;;;24.80;1.00;;;;;;5114426;28;20776;-49
2023/05/29 08:16:02;;;;;;;7.50;6.17;;;24.90;1.00;;;;;;5097205;28;20502;-46
2023/05/29 08:18:31;;;;;;;7.40;6.23;;;25.00;1.00;;;;;;5116263;28;20771;-49
2023/05/29 08:20:56;;;;;;;8.03;7.20;;;25.20;1.00;;;;;;5128242;27;20494;-49
2023/05/29 08:23:22;;;;;;;6.50;5.87;;;25.40;1.00;;;;;;5134696;27;20983;-47
2023/05/29 08:25:48;;;;;;;7.53;6.37;;;25.20;1.00;;;;;;5134394;27;20800;-49
2023/05/29 08:28:17;;;;;;;6.17;5.57;;;25.30;1.00;;;;;;5134788;27;20220;-49
2023/05/29 08:30:43;;;;;;;11.37;7.17;;;25.40;1.00;;;;;;5133939;27;20175;-48
2023/05/29 08:33:08;;;;;;;6.60;5.83;;;25.50;1.00;;;;;;5134611;27;20645;-46
2023/05/29 08:35:34;;;;;;;7.60;6.50;;;25.60;1.00;;;;;;5135293;27;20195;-48
2023/05/29 08:38:00;;;;;;;8.30;6.90;;;25.70;1.00;;;;;;5135697;27;20179;-48
2023/05/29 08:40:26;;;;;;;8.43;6.43;;;25.70;1.00;;;;;;5134493;27;20556;-47
2023/05/29 08:42:57;;;;;;;6.87;6.10;;;25.80;1.00;;;;;;5136459;27;20567;-48
2023/05/29 08:45:24;;;;;;;6.70;6.10;;;25.80;1.00;;;;;;5116840;27;20235;-47
2023/05/29 08:47:53;;;;;;;7.30;6.60;;;25.90;1.00;;;;;;5134352;27;20417;-47
2023/05/29 08:50:23;;;;;;;6.90;6.07;;;26.20;1.00;;;;;;5134878;27;20417;-50
2023/05/29 08:52:49;;;;;;;7.00;6.40;;;26.60;1.00;;;;;;5134034;27;20709;-46
2023/05/29 08:55:15;;;;;;;6.83;6.07;;;26.90;1.00;;;;;;5133506;27;20429;-47
2023/05/29 08:57:43;;;;;;;6.57;5.83;;;27.00;1.00;;;;;;5115127;27;20460;-46
2023/05/29 09:00:12;;;;;;;6.73;6.13;;;27.20;1.00;;;;;;5135290;27;20194;-49
2023/05/29 09:02:44;;;;;;;7.97;7.17;;;27.30;1.00;;;;;;5117689;27;20468;-49
2023/05/29 09:05:10;;;;;;;6.63;6.00;;;27.40;1.00;;;;;;5134309;27;20424;-47
2023/05/29 09:07:39;;;;;;;8.80;6.23;;;27.70;1.00;;;;;;5134802;27;20702;-47
2023/05/29 09:10:06;;;;;;;7.50;6.80;;;27.80;1.00;;;;;;5135314;27;20420;-46
2023/05/29 09:12:33;;;;;;;8.90;6.53;;;27.80;1.00;;;;;;5135643;27;20420;-48
2023/05/29 09:14:59;;;;;;;9.03;7.00;;;27.90;1.00;;;;;;5135655;27;20502;-51
2023/05/29 09:17:24;;;;;;;6.50;5.90;;;27.40;1.00;;;;;;5136091;27;20543;-50
2023/05/29 09:19:50;;;;;;;9.10;7.03;;;27.40;1.00;;;;;;5130890;28;20179;-49
2023/05/29 09:22:16;;;;;;;6.97;6.30;;;27.50;1.00;;;;;;5114998;28;20216;-47
2023/05/29 09:24:46;;;;;;;6.87;6.20;;;27.70;1.00;;;;;;5114955;28;20178;-51
2023/05/29 09:27:12;;;;;;;6.27;5.67;;;27.90;1.00;;;;;;5117399;28;20679;-49
2023/05/29 09:29:42;;;;;;;7.20;6.60;;;28.20;1.00;;;;;;5118558;28;20429;-51
2023/05/29 09:32:16;;;;;;;7.50;6.70;;;28.60;1.00;;;;;;5119677;28;20182;-48
2023/05/29 09:34:42;;;;;;;7.40;6.70;;;28.90;1.00;;;;;;5102239;28;20448;-52
2023/05/29 09:37:10;;;;;;;8.73;6.97;;;29.10;1.00;;;;;;5118283;28;20709;-47
2023/05/29 09:39:42;;;;;;;7.23;6.50;;;28.90;1.00;;;;;;5124061;27;20687;-48
2023/05/29 09:42:09;;;;;;;8.60;7.07;;;29.10;1.00;;;;;;5138294;27;20541;-47
2023/05/29 09:44:36;;;;;;;7.73;6.60;;;29.40;1.00;;;;;;5136676;27;20428;-48
2023/05/29 09:47:02;;;;;;;7.50;6.77;;;29.60;1.00;;;;;;5137738;27;20414;-49
2023/05/29 09:49:28;;;;;;;8.80;6.37;;;29.80;1.00;;;;;;5137075;27;20403;-49
2023/05/29 09:51:54;;;;;;;7.00;6.30;;;30.00;1.00;;;;;;5138738;27;20410;-48
2023/05/29 09:54:20;;;;;;;8.90;6.90;;;29.50;1.00;;;;;;5139803;27;20474;-48
2023/05/29 09:56:47;;;;;;;6.53;5.93;;;29.30;1.00;;;;;;5138577;27;20535;-47
2023/05/29 09:59:14;;;;;;;6.57;5.90;;;29.50;1.00;;;;;;5137112;27;20560;-50
2023/05/29 10:01:43;;;;;;;8.90;6.60;;;29.90;1.00;;;;;;5140103;27;20497;-51
2023/05/29 10:04:10;;;;;;;9.20;7.70;;;30.10;1.00;;;;;;5138488;27;20772;-49
2023/05/29 10:06:38;;;;;;;7.93;7.23;;;30.20;1.00;;;;;;5136409;27;20404;-48
2023/05/29 10:09:07;;;;;;;8.50;6.50;;;30.40;1.00;;;;;;5137685;27;20422;-47
2023/05/29 10:11:33;;;;;;;7.13;6.00;;;30.50;1.00;;;;;;5117802;27;20395;-51
2023/05/29 10:14:00;;;;;;;7.27;6.20;;;30.60;1.00;;;;;;5120132;27;20443;-49
2023/05/29 10:16:26;;;;;;;7.00;6.30;;;30.70;1.00;;;;;;5136824;27;20726;-50
2023/05/29 10:18:56;;;;;;;6.53;5.93;;;30.70;1.00;;;;;;5118886;27;20565;-47
2023/05/29 10:21:22;;;;;;;7.60;6.83;;;30.70;1.00;;;;;;5137533;27;20486;-49
2023/05/29 10:23:49;;;;;;;6.97;6.37;;;30.60;1.00;;;;;;5120561;27;20582;-48
2023/05/29 10:26:21;;;;;;;7.50;6.10;;;30.70;1.00;;;;;;5119681;27;20822;-50
2023/05/29 10:28:52;;;;;;;7.10;6.50;;;30.90;1.00;;;;;;5137725;27;20403;-49
2023/05/29 10:31:23;;;;;;;8.57;6.57;;;30.80;1.00;;;;;;5119022;27;20421;-48
2023/05/29 10:34:23;;;;;;;7.50;6.23;;;30.70;1.00;;;;;;5137419;27;20417;-49
2023/05/29 10:36:56;;;;;;;7.10;6.40;;;30.80;1.00;;;;;;5111670;27;20442;-47
2023/05/29 10:39:22;;;;;;;7.97;7.23;;;30.80;1.00;;;;;;5117394;27;20764;-49
2023/05/29 10:41:47;;;;;;;8.03;7.27;;;30.80;1.00;;;;;;5112513;28;20439;-51
2023/05/29 10:44:31;;;;;;;8.40;7.60;;;31.10;1.00;;;;;;5108993;27;20601;-48
2023/05/29 10:47:00;;;;;;;7.87;7.17;;;31.20;1.00;;;;;;5135242;27;20186;-49
2023/05/29 10:49:26;;;;;;;7.70;6.73;;;31.40;1.00;;;;;;5135444;27;20403;-52
2023/05/29 10:51:52;;;;;;;7.70;6.70;;;31.60;1.00;;;;;;5135860;27;20535;-48
2023/05/29 10:54:25;;;;;;;8.70;7.90;;;31.70;1.00;;;;;;5135959;27;20376;-48
2023/05/29 10:56:59;;;;;;;7.90;7.13;;;31.90;1.00;;;;;;5135901;27;20447;-50
2023/05/29 10:59:28;;;;;;;8.53;7.57;;;31.90;1.00;;;;;;5118323;27;20501;-52
2023/05/29 11:01:54;;;;;;;10.53;8.33;;;31.70;1.00;;;;;;5137519;27;20395;-48
2023/05/29 11:04:20;;;;;;;12.70;11.60;;;31.40;1.00;;;;;;5135020;27;20846;-49
2023/05/29 11:06:46;;;;;;;158.63;144.00;;;31.40;1.00;;;;;;5134750;27;20383;-48
2023/05/29 11:09:31;;;;;;;15.67;14.10;;;31.70;1.00;;;;;;5136982;27;20182;-49
2023/05/29 11:12:11;;;;;;;8.43;7.50;;;32.00;1.00;;;;;;5136677;27;20416;-50
2023/05/29 11:14:53;;;;;;;7.50;6.70;;;32.10;1.00;;;;;;5137606;27;20411;-48
2023/05/29 11:17:36;;;;;;;9.10;6.00;;;31.80;1.00;;;;;;5137588;27;20506;-49
2023/05/29 11:20:05;;;;;;;6.63;6.03;;;32.00;1.00;;;;;;5137654;27;20428;-49
2023/05/29 11:22:48;;;;;;;6.60;6.00;;;32.80;1.00;;;;;;5135527;27;20472;-49
2023/05/29 11:25:14;;;;;;;6.40;5.70;;;33.30;1.00;;;;;;5136846;27;20383;-49
2023/05/29 11:27:41;;;;;;;7.73;6.87;;;33.70;1.00;;;;;;5134478;27;20511;-48
2023/05/29 11:30:07;;;;;;;9.27;6.70;;;33.30;1.00;;;;;;5116202;27;20416;-49
2023/05/29 11:32:34;;;;;;;6.40;5.80;;;33.10;1.00;;;;;;5134895;27;20920;-49
2023/05/29 11:35:08;;;;;;;7.30;6.60;;;32.70;1.00;;;;;;5134934;27;20527;-49
2023/05/29 11:37:37;;;;;;;12.77;11.47;;;32.90;1.00;;;;;;5114958;27;20510;-49
2023/05/29 11:40:08;;;;;;;9.53;8.37;;;32.70;1.00;;;;;;5133932;27;20431;-48
2023/05/29 11:42:35;;;;;;;6.50;5.90;;;32.70;1.00;;;;;;5136286;27;20450;-47
2023/05/29 11:45:11;;;;;;;14.60;10.23;;;32.50;1.00;;;;;;5135754;27;20391;-49
2023/05/29 11:47:56;;;;;;;7.00;5.83;;;32.10;1.00;;;;;;5135248;27;20431;-50
2023/05/29 11:50:23;;;;;;;6.10;5.50;;;32.00;1.00;;;;;;5134183;27;20493;-52
2023/05/29 11:52:49;;;;;;;8.03;5.40;;;32.00;1.00;;;;;;5135148;27;20890;-49
2023/05/29 11:55:15;;;;;;;5.93;5.43;;;32.10;1.00;;;;;;5115839;27;20527;-50
2023/05/29 11:57:41;;;;;;;6.23;5.63;;;32.30;1.00;;;;;;5133213;27;20265;-49
2023/05/29 12:00:15;;;;;;;6.97;5.77;;;32.60;1.00;;;;;;5115435;27;20202;-49
2023/05/29 12:02:42;;;;;;;6.17;5.57;;;33.00;1.00;;;;;;5135487;27;20484;-47
2023/05/29 12:05:08;;;;;;;6.00;5.20;;;33.40;1.00;;;;;;5134938;27;20745;-48
2023/05/29 12:07:34;;;;;;;6.43;5.77;;;33.70;1.00;;;;;;5134802;27;20646;-48
2023/05/29 12:10:14;;;;;;;5.83;5.33;;;34.00;1.00;;;;;;5134477;27;20625;-48
2023/05/29 12:12:40;;;;;;;6.70;5.50;;;34.00;1.00;;;;;;5134078;27;20495;-50
2023/05/29 12:15:08;;;;;;;7.43;6.63;;;34.10;1.00;;;;;;5135319;27;20515;-48
2023/05/29 12:17:35;;;;;;;9.53;8.13;;;34.30;1.00;;;;;;5135938;27;20428;-50
2023/05/29 12:20:00;;;;;;;5.57;5.07;;;34.50;1.00;;;;;;5114702;27;20951;-48
2023/05/29 12:22:34;;;;;;;6.47;5.80;;;34.50;1.00;;;;;;5113199;27;20500;-50
2023/05/29 12:25:24;;;;;;;10.27;6.07;;;34.10;1.00;;;;;;5133543;27;20407;-49
2023/05/29 12:27:50;;;;;;;6.37;5.43;;;34.10;1.00;;;;;;5134739;27;20482;-50
2023/05/29 12:30:22;;;;;;;7.53;6.73;;;34.50;1.00;;;;;;5116160;27;20868;-47
2023/05/29 12:32:49;;;;;;;10.70;8.30;;;34.80;1.00;;;;;;5114834;27;20488;-48
2023/05/29 12:35:20;;;;;;;9.93;9.10;;;35.00;1.00;;;;;;5132916;27;20407;-48
2023/05/29 12:37:53;;;;;;;7.10;6.50;;;35.20;1.00;;;;;;5132644;27;20513;-48
2023/05/29 12:40:25;;;;;;;7.50;6.70;;;35.50;1.00;;;;;;5132912;27;20433;-52
2023/05/29 12:43:02;;;;;;;8.13;5.60;;;35.60;1.00;;;;;;5132169;27;20875;-48
2023/05/29 12:45:30;;;;;;;9.03;5.83;;;35.30;1.00;;;;;;5131825;27;20407;-52
2023/05/29 12:48:05;;;;;;;8.00;4.80;;;35.00;1.00;;;;;;5115738;27;20717;-55
2023/05/29 12:50:32;;;;;;;6.10;5.60;;;34.60;1.00;;;;;;5135332;27;20817;-53
2023/05/29 12:53:01;;;;;;;7.83;7.13;;;34.50;1.00;;;;;;5135817;27;20470;-52
2023/05/29 12:55:36;;;;;;;6.07;5.57;;;34.60;1.00;;;;;;5135739;27;20712;-55